sensor_id;sensor_type;location;lat;lon;timestamp;temperature;humidity
10276;DHT22;5183;51.190;6.820;2022-08-05T00:01:21;19.20;99.90
10276;DHT22;5183;51.190;6.820;2022-08-05T00:03:50;19.20;99.90
10276;DHT22;5183;51.190;6.820;2022-08-05T00:06:17;19.20;99.90
10276;DHT22;5183;51.190;6.820;2022-08-05T00:08:44;19.20;99.90
10276;DHT22;5183;51.190;6.820;2022-08-05T00:11:13;19.20;99.90
10276;DHT22;5183;51.190;6.820;2022-08-05T00:13:42;19.20;99.90
10276;DHT22;5183;51.190;6.820;2022-08-05T00:16:13;19.20;99.90
10276;DHT22;5183;51.190;6.820;2022-08-05T00:18:42;19.20;99.90
10276;DHT22;5183;51.190;6.820;2022-08-05T00:21:12;19.20;99.90
10276;DHT22;5183;51.190;6.820;2022-08-05T00:23:39;19.10;99.90
10276;DHT22;5183;51.190;6.820;2022-08-05T00:26:07;19.10;99.90
10276;DHT22;5183;51.190;6.820;2022-08-05T00:28:36;19.10;99.90
10276;DHT22;5183;51.190;6.820;2022-08-05T00:31:03;19.10;99.90
10276;DHT22;5183;51.190;6.820;2022-08-05T00:33:30;19.10;99.90
10276;DHT22;5183;51.190;6.820;2022-08-05T00:35:57;19.10;99.90
10276;DHT22;5183;51.190;6.820;2022-08-05T00:38:25;19.20;99.90
10276;DHT22;5183;51.190;6.820;2022-08-05T00:40:54;19.20;99.90
10276;DHT22;5183;51.190;6.820;2022-08-05T00:43:21;19.20;99.90
10276;DHT22;5183;51.190;6.820;2022-08-05T00:45:48;19.10;99.90
10276;DHT22;5183;51.190;6.820;2022-08-05T00:48:17;19.20;99.90
10276;DHT22;5183;51.190;6.820;2022-08-05T00:50:46;19.20;99.90
10276;DHT22;5183;51.190;6.820;2022-08-05T00:53:14;19.30;99.90
10276;DHT22;5183;51.190;6.820;2022-08-05T00:55:43;19.30;99.90
10276;DHT22;5183;51.190;6.820;2022-08-05T00:58:10;19.30;99.90
10276;DHT22;5183;51.190;6.820;2022-08-05T01:00:38;19.30;99.90
10276;DHT22;5183;51.190;6.820;2022-08-05T01:03:05;19.30;99.90
10276;DHT22;5183;51.190;6.820;2022-08-05T01:05:32;19.30;99.90
10276;DHT22;5183;51.190;6.820;2022-08-05T01:07:59;19.40;99.90
10276;DHT22;5183;51.190;6.820;2022-08-05T01:10:28;19.30;99.90
10276;DHT22;5183;51.190;6.820;2022-08-05T01:13:05;19.30;99.90
10276;DHT22;5183;51.190;6.820;2022-08-05T01:15:38;19.20;99.90
10276;DHT22;5183;51.190;6.820;2022-08-05T01:18:11;19.20;99.90
10276;DHT22;5183;51.190;6.820;2022-08-05T01:20:48;19.10;99.90
10276;DHT22;5183;51.190;6.820;2022-08-05T01:23:24;19.10;99.90
10276;DHT22;5183;51.190;6.820;2022-08-05T01:26:25;19.00;99.90
10276;DHT22;5183;51.190;6.820;2022-08-05T01:28:59;19.00;99.90
10276;DHT22;5183;51.190;6.820;2022-08-05T01:31:31;19.00;99.90
10276;DHT22;5183;51.190;6.820;2022-08-05T01:34:03;18.90;99.90
10276;DHT22;5183;51.190;6.820;2022-08-05T01:36:35;18.90;99.90
10276;DHT22;5183;51.190;6.820;2022-08-05T01:39:03;19.00;99.90
10276;DHT22;5183;51.190;6.820;2022-08-05T01:41:33;19.10;99.90
10276;DHT22;5183;51.190;6.820;2022-08-05T01:44:03;19.10;99.90
10276;DHT22;5183;51.190;6.820;2022-08-05T01:46:32;19.10;99.90
10276;DHT22;5183;51.190;6.820;2022-08-05T01:49:01;19.10;99.90
10276;DHT22;5183;51.190;6.820;2022-08-05T01:51:30;19.20;99.90
10276;DHT22;5183;51.190;6.820;2022-08-05T01:54:01;19.10;99.90
10276;DHT22;5183;51.190;6.820;2022-08-05T01:56:32;19.10;99.90
10276;DHT22;5183;51.190;6.820;2022-08-05T01:59:03;19.10;99.90
10276;DHT22;5183;51.190;6.820;2022-08-05T02:01:33;19.10;99.90
10276;DHT22;5183;51.190;6.820;2022-08-05T02:04:02;19.30;99.90
10276;DHT22;5183;51.190;6.820;2022-08-05T02:06:30;19.20;99.90
10276;DHT22;5183;51.190;6.820;2022-08-05T02:08:57;19.20;99.90
10276;DHT22;5183;51.190;6.820;2022-08-05T02:11:24;19.20;99.90
10276;DHT22;5183;51.190;6.820;2022-08-05T02:13:53;19.40;99.90
10276;DHT22;5183;51.190;6.820;2022-08-05T02:16:24;19.50;99.90
10276;DHT22;5183;51.190;6.820;2022-08-05T02:18:55;19.40;99.90
10276;DHT22;5183;51.190;6.820;2022-08-05T02:21:27;19.50;99.90
10276;DHT22;5183;51.190;6.820;2022-08-05T02:23:56;19.30;99.90
10276;DHT22;5183;51.190;6.820;2022-08-05T02:26:27;19.20;99.90
10276;DHT22;5183;51.190;6.820;2022-08-05T02:28:59;19.10;99.90
10276;DHT22;5183;51.190;6.820;2022-08-05T02:31:29;18.90;99.90
10276;DHT22;5183;51.190;6.820;2022-08-05T02:34:00;18.80;99.90
10276;DHT22;5183;51.190;6.820;2022-08-05T02:36:30;18.80;99.90
10276;DHT22;5183;51.190;6.820;2022-08-05T02:38:59;18.70;99.90
10276;DHT22;5183;51.190;6.820;2022-08-05T02:41:27;18.70;99.90
10276;DHT22;5183;51.190;6.820;2022-08-05T02:43:57;18.60;99.90
10276;DHT22;5183;51.190;6.820;2022-08-05T02:46:27;18.70;99.90
10276;DHT22;5183;51.190;6.820;2022-08-05T02:48:54;18.60;99.90
10276;DHT22;5183;51.190;6.820;2022-08-05T02:51:22;18.70;99.90
10276;DHT22;5183;51.190;6.820;2022-08-05T02:53:50;18.60;99.90
10276;DHT22;5183;51.190;6.820;2022-08-05T02:56:17;18.50;99.90
10276;DHT22;5183;51.190;6.820;2022-08-05T02:58:44;18.50;99.90
10276;DHT22;5183;51.190;6.820;2022-08-05T03:01:18;18.50;99.90
10276;DHT22;5183;51.190;6.820;2022-08-05T03:03:48;18.50;99.90
10276;DHT22;5183;51.190;6.820;2022-08-05T03:06:19;18.50;99.90
10276;DHT22;5183;51.190;6.820;2022-08-05T03:08:46;18.50;99.90
10276;DHT22;5183;51.190;6.820;2022-08-05T03:11:18;18.60;99.90
10276;DHT22;5183;51.190;6.820;2022-08-05T03:13:46;18.60;99.90
10276;DHT22;5183;51.190;6.820;2022-08-05T03:16:13;18.50;99.90
10276;DHT22;5183;51.190;6.820;2022-08-05T03:18:40;18.50;99.90
10276;DHT22;5183;51.190;6.820;2022-08-05T03:21:09;18.50;99.90
10276;DHT22;5183;51.190;6.820;2022-08-05T03:23:38;18.50;99.90
10276;DHT22;5183;51.190;6.820;2022-08-05T03:26:05;18.40;99.90
10276;DHT22;5183;51.190;6.820;2022-08-05T03:28:32;18.30;99.90
10276;DHT22;5183;51.190;6.820;2022-08-05T03:31:01;18.30;99.90
10276;DHT22;5183;51.190;6.820;2022-08-05T03:33:28;18.20;99.90
10276;DHT22;5183;51.190;6.820;2022-08-05T03:35:56;18.20;99.90
10276;DHT22;5183;51.190;6.820;2022-08-05T03:38:25;18.20;99.90
10276;DHT22;5183;51.190;6.820;2022-08-05T03:40:52;18.10;99.90
10276;DHT22;5183;51.190;6.820;2022-08-05T03:43:20;18.20;99.90
10276;DHT22;5183;51.190;6.820;2022-08-05T03:45:49;18.20;99.90
10276;DHT22;5183;51.190;6.820;2022-08-05T03:48:16;18.20;99.90
10276;DHT22;5183;51.190;6.820;2022-08-05T03:50:49;18.20;99.90
10276;DHT22;5183;51.190;6.820;2022-08-05T03:53:22;18.20;99.90
10276;DHT22;5183;51.190;6.820;2022-08-05T03:56:01;18.20;99.90
10276;DHT22;5183;51.190;6.820;2022-08-05T03:58:30;18.10;99.90
10276;DHT22;5183;51.190;6.820;2022-08-05T04:00:59;18.10;99.90
10276;DHT22;5183;51.190;6.820;2022-08-05T04:03:28;18.10;99.90
10276;DHT22;5183;51.190;6.820;2022-08-05T04:05:57;18.10;99.90
10276;DHT22;5183;51.190;6.820;2022-08-05T04:08:26;18.10;99.90
10276;DHT22;5183;51.190;6.820;2022-08-05T04:10:56;18.10;99.90
10276;DHT22;5183;51.190;6.820;2022-08-05T04:13:25;18.20;99.90
10276;DHT22;5183;51.190;6.820;2022-08-05T04:15:52;18.10;99.90
10276;DHT22;5183;51.190;6.820;2022-08-05T04:18:22;18.20;99.90
10276;DHT22;5183;51.190;6.820;2022-08-05T04:20:52;18.10;99.90
10276;DHT22;5183;51.190;6.820;2022-08-05T04:23:22;18.10;99.90
10276;DHT22;5183;51.190;6.820;2022-08-05T04:25:49;18.10;99.90
10276;DHT22;5183;51.190;6.820;2022-08-05T04:28:17;18.20;99.90
10276;DHT22;5183;51.190;6.820;2022-08-05T04:30:44;18.20;99.90
10276;DHT22;5183;51.190;6.820;2022-08-05T04:33:11;18.20;99.90
10276;DHT22;5183;51.190;6.820;2022-08-05T04:35:38;18.20;99.90
10276;DHT22;5183;51.190;6.820;2022-08-05T04:38:05;18.20;99.90
10276;DHT22;5183;51.190;6.820;2022-08-05T04:40:33;18.20;99.90
10276;DHT22;5183;51.190;6.820;2022-08-05T04:43:00;18.10;99.90
10276;DHT22;5183;51.190;6.820;2022-08-05T04:45:28;18.10;99.90
10276;DHT22;5183;51.190;6.820;2022-08-05T04:48:03;18.10;99.90
10276;DHT22;5183;51.190;6.820;2022-08-05T04:50:30;18.00;99.90
10276;DHT22;5183;51.190;6.820;2022-08-05T04:52:57;18.00;99.90
10276;DHT22;5183;51.190;6.820;2022-08-05T04:55:23;18.00;99.90
10276;DHT22;5183;51.190;6.820;2022-08-05T04:57:50;18.00;99.90
10276;DHT22;5183;51.190;6.820;2022-08-05T05:00:17;17.90;99.90
10276;DHT22;5183;51.190;6.820;2022-08-05T05:02:45;17.90;99.90
10276;DHT22;5183;51.190;6.820;2022-08-05T05:05:12;17.90;99.90
10276;DHT22;5183;51.190;6.820;2022-08-05T05:07:39;17.90;99.90
10276;DHT22;5183;51.190;6.820;2022-08-05T05:10:06;17.90;99.90
10276;DHT22;5183;51.190;6.820;2022-08-05T05:12:33;17.80;99.90
10276;DHT22;5183;51.190;6.820;2022-08-05T05:15:00;17.80;99.90
10276;DHT22;5183;51.190;6.820;2022-08-05T05:17:27;17.80;99.90
10276;DHT22;5183;51.190;6.820;2022-08-05T05:19:55;17.90;99.90
10276;DHT22;5183;51.190;6.820;2022-08-05T05:22:22;17.90;99.90
10276;DHT22;5183;51.190;6.820;2022-08-05T05:24:49;18.00;99.90
10276;DHT22;5183;51.190;6.820;2022-08-05T05:27:16;18.00;99.90
10276;DHT22;5183;51.190;6.820;2022-08-05T05:29:42;18.10;99.90
10276;DHT22;5183;51.190;6.820;2022-08-05T05:32:09;18.10;99.90
10276;DHT22;5183;51.190;6.820;2022-08-05T05:34:36;18.10;99.90
10276;DHT22;5183;51.190;6.820;2022-08-05T05:37:04;18.20;99.90
10276;DHT22;5183;51.190;6.820;2022-08-05T05:39:31;18.20;99.90
10276;DHT22;5183;51.190;6.820;2022-08-05T05:41:58;18.20;99.90
10276;DHT22;5183;51.190;6.820;2022-08-05T05:44:25;18.20;99.90
10276;DHT22;5183;51.190;6.820;2022-08-05T05:46:52;18.20;99.90
10276;DHT22;5183;51.190;6.820;2022-08-05T05:49:19;18.30;99.90
10276;DHT22;5183;51.190;6.820;2022-08-05T05:51:45;18.40;99.90
10276;DHT22;5183;51.190;6.820;2022-08-05T05:54:14;18.40;99.90
10276;DHT22;5183;51.190;6.820;2022-08-05T05:56:40;18.40;99.90
10276;DHT22;5183;51.190;6.820;2022-08-05T05:59:07;18.40;99.90
10276;DHT22;5183;51.190;6.820;2022-08-05T06:01:36;18.40;99.90
10276;DHT22;5183;51.190;6.820;2022-08-05T06:04:03;18.30;99.90
10276;DHT22;5183;51.190;6.820;2022-08-05T06:06:30;18.30;99.90
10276;DHT22;5183;51.190;6.820;2022-08-05T06:08:57;18.30;99.90
10276;DHT22;5183;51.190;6.820;2022-08-05T06:11:25;18.30;99.90
10276;DHT22;5183;51.190;6.820;2022-08-05T06:13:52;18.30;99.90
10276;DHT22;5183;51.190;6.820;2022-08-05T06:16:19;18.20;99.90
10276;DHT22;5183;51.190;6.820;2022-08-05T06:18:46;18.20;99.90
10276;DHT22;5183;51.190;6.820;2022-08-05T06:21:12;18.30;99.90
10276;DHT22;5183;51.190;6.820;2022-08-05T06:23:39;18.30;99.90
10276;DHT22;5183;51.190;6.820;2022-08-05T06:26:06;18.20;99.90
10276;DHT22;5183;51.190;6.820;2022-08-05T06:28:34;18.20;99.90
10276;DHT22;5183;51.190;6.820;2022-08-05T06:31:02;18.20;99.90
10276;DHT22;5183;51.190;6.820;2022-08-05T06:33:29;18.10;99.90
10276;DHT22;5183;51.190;6.820;2022-08-05T06:35:56;18.20;99.90
10276;DHT22;5183;51.190;6.820;2022-08-05T06:38:22;18.20;99.90
10276;DHT22;5183;51.190;6.820;2022-08-05T06:40:49;18.10;99.90
10276;DHT22;5183;51.190;6.820;2022-08-05T06:43:16;18.20;99.90
10276;DHT22;5183;51.190;6.820;2022-08-05T06:45:44;18.10;99.90
10276;DHT22;5183;51.190;6.820;2022-08-05T06:48:11;18.10;99.90
10276;DHT22;5183;51.190;6.820;2022-08-05T06:50:38;18.20;99.90
10276;DHT22;5183;51.190;6.820;2022-08-05T06:53:05;18.20;99.90
10276;DHT22;5183;51.190;6.820;2022-08-05T06:55:32;18.20;99.90
10276;DHT22;5183;51.190;6.820;2022-08-05T06:57:59;18.20;99.90
10276;DHT22;5183;51.190;6.820;2022-08-05T07:00:26;18.20;99.90
10276;DHT22;5183;51.190;6.820;2022-08-05T07:02:54;18.10;99.90
10276;DHT22;5183;51.190;6.820;2022-08-05T07:05:21;18.20;99.90
10276;DHT22;5183;51.190;6.820;2022-08-05T07:07:48;18.20;99.90
10276;DHT22;5183;51.190;6.820;2022-08-05T07:10:14;18.20;99.90
10276;DHT22;5183;51.190;6.820;2022-08-05T07:12:42;18.10;99.90
10276;DHT22;5183;51.190;6.820;2022-08-05T07:15:26;18.00;99.90
10276;DHT22;5183;51.190;6.820;2022-08-05T07:18:12;18.00;99.90
10276;DHT22;5183;51.190;6.820;2022-08-05T07:20:39;17.90;99.90
10276;DHT22;5183;51.190;6.820;2022-08-05T07:23:05;17.90;99.90
10276;DHT22;5183;51.190;6.820;2022-08-05T07:25:32;17.90;99.90
10276;DHT22;5183;51.190;6.820;2022-08-05T07:27:59;17.90;99.90
10276;DHT22;5183;51.190;6.820;2022-08-05T07:30:26;17.90;99.90
10276;DHT22;5183;51.190;6.820;2022-08-05T07:32:53;17.70;99.90
10276;DHT22;5183;51.190;6.820;2022-08-05T07:35:21;17.80;99.90
10276;DHT22;5183;51.190;6.820;2022-08-05T07:37:48;17.80;99.90
10276;DHT22;5183;51.190;6.820;2022-08-05T07:40:15;17.80;99.90
10276;DHT22;5183;51.190;6.820;2022-08-05T07:42:42;17.80;99.90
10276;DHT22;5183;51.190;6.820;2022-08-05T07:45:09;17.80;99.90
10276;DHT22;5183;51.190;6.820;2022-08-05T07:47:36;17.70;99.90
10276;DHT22;5183;51.190;6.820;2022-08-05T07:50:03;17.80;99.90
10276;DHT22;5183;51.190;6.820;2022-08-05T07:52:37;17.80;99.90
10276;DHT22;5183;51.190;6.820;2022-08-05T07:55:04;17.80;99.90
10276;DHT22;5183;51.190;6.820;2022-08-05T07:57:31;17.90;99.90
10276;DHT22;5183;51.190;6.820;2022-08-05T07:59:58;17.80;99.90
10276;DHT22;5183;51.190;6.820;2022-08-05T08:02:26;17.80;99.90
10276;DHT22;5183;51.190;6.820;2022-08-05T08:04:54;17.70;99.90
10276;DHT22;5183;51.190;6.820;2022-08-05T08:07:21;17.60;99.90
10276;DHT22;5183;51.190;6.820;2022-08-05T08:09:50;17.50;99.90
10276;DHT22;5183;51.190;6.820;2022-08-05T08:12:17;17.50;99.90
10276;DHT22;5183;51.190;6.820;2022-08-05T08:14:44;17.40;99.90
10276;DHT22;5183;51.190;6.820;2022-08-05T08:17:11;17.40;99.90
10276;DHT22;5183;51.190;6.820;2022-08-05T08:19:39;17.30;99.90
10276;DHT22;5183;51.190;6.820;2022-08-05T08:22:07;17.20;99.90
10276;DHT22;5183;51.190;6.820;2022-08-05T08:24:34;17.10;99.90
10276;DHT22;5183;51.190;6.820;2022-08-05T08:27:03;17.10;99.90
10276;DHT22;5183;51.190;6.820;2022-08-05T08:29:31;17.00;99.90
10276;DHT22;5183;51.190;6.820;2022-08-05T08:31:58;17.00;99.90
10276;DHT22;5183;51.190;6.820;2022-08-05T08:34:25;16.90;99.90
10276;DHT22;5183;51.190;6.820;2022-08-05T08:36:52;16.90;99.90
10276;DHT22;5183;51.190;6.820;2022-08-05T08:39:20;17.00;99.90
10276;DHT22;5183;51.190;6.820;2022-08-05T08:41:50;17.00;99.90
10276;DHT22;5183;51.190;6.820;2022-08-05T08:44:22;17.10;99.90
10276;DHT22;5183;51.190;6.820;2022-08-05T08:46:49;17.10;99.90
10276;DHT22;5183;51.190;6.820;2022-08-05T08:49:18;17.10;99.90
10276;DHT22;5183;51.190;6.820;2022-08-05T08:51:58;17.20;99.90
10276;DHT22;5183;51.190;6.820;2022-08-05T08:54:26;17.20;99.90
10276;DHT22;5183;51.190;6.820;2022-08-05T08:56:54;17.30;99.90
10276;DHT22;5183;51.190;6.820;2022-08-05T08:59:22;17.40;99.90
10276;DHT22;5183;51.190;6.820;2022-08-05T09:01:49;17.50;99.90
10276;DHT22;5183;51.190;6.820;2022-08-05T09:04:17;17.60;99.90
10276;DHT22;5183;51.190;6.820;2022-08-05T09:06:44;17.70;99.90
10276;DHT22;5183;51.190;6.820;2022-08-05T09:09:11;17.70;99.90
10276;DHT22;5183;51.190;6.820;2022-08-05T09:11:38;17.80;99.90
10276;DHT22;5183;51.190;6.820;2022-08-05T09:14:05;17.90;99.90
10276;DHT22;5183;51.190;6.820;2022-08-05T09:16:34;17.90;99.90
10276;DHT22;5183;51.190;6.820;2022-08-05T09:19:01;18.00;99.90
10276;DHT22;5183;51.190;6.820;2022-08-05T09:21:27;18.10;99.90
10276;DHT22;5183;51.190;6.820;2022-08-05T09:24:03;18.10;99.90
10276;DHT22;5183;51.190;6.820;2022-08-05T09:26:32;18.20;99.90
10276;DHT22;5183;51.190;6.820;2022-08-05T09:29:00;18.30;99.90
10276;DHT22;5183;51.190;6.820;2022-08-05T09:31:29;18.30;99.90
10276;DHT22;5183;51.190;6.820;2022-08-05T09:33:59;18.40;99.90
10276;DHT22;5183;51.190;6.820;2022-08-05T09:36:38;18.40;99.90
10276;DHT22;5183;51.190;6.820;2022-08-05T09:39:07;18.30;99.90
10276;DHT22;5183;51.190;6.820;2022-08-05T09:41:35;18.40;99.90
10276;DHT22;5183;51.190;6.820;2022-08-05T09:44:32;18.50;99.90
10276;DHT22;5183;51.190;6.820;2022-08-05T09:47:07;18.70;99.90
10276;DHT22;5183;51.190;6.820;2022-08-05T09:49:39;18.60;99.90
10276;DHT22;5183;51.190;6.820;2022-08-05T09:52:27;18.50;99.90
10276;DHT22;5183;51.190;6.820;2022-08-05T09:54:57;18.50;99.90
10276;DHT22;5183;51.190;6.820;2022-08-05T09:57:32;18.40;99.90
10276;DHT22;5183;51.190;6.820;2022-08-05T10:00:01;18.50;99.90
10276;DHT22;5183;51.190;6.820;2022-08-05T10:02:33;18.70;99.90
10276;DHT22;5183;51.190;6.820;2022-08-05T10:05:10;18.80;99.90
10276;DHT22;5183;51.190;6.820;2022-08-05T10:07:49;19.20;99.90
10276;DHT22;5183;51.190;6.820;2022-08-05T10:10:18;19.40;99.90
10276;DHT22;5183;51.190;6.820;2022-08-05T10:12:49;19.40;99.90
10276;DHT22;5183;51.190;6.820;2022-08-05T10:15:22;19.50;1.00
10276;DHT22;5183;51.190;6.820;2022-08-05T10:18:13;19.80;1.00
10276;DHT22;5183;51.190;6.820;2022-08-05T10:20:44;20.10;1.00
10276;DHT22;5183;51.190;6.820;2022-08-05T10:23:16;20.30;1.00
10276;DHT22;5183;51.190;6.820;2022-08-05T10:25:43;20.50;1.00
10276;DHT22;5183;51.190;6.820;2022-08-05T10:28:10;20.60;1.00
10276;DHT22;5183;51.190;6.820;2022-08-05T10:30:38;20.60;1.00
10276;DHT22;5183;51.190;6.820;2022-08-05T10:33:05;20.70;1.00
10276;DHT22;5183;51.190;6.820;2022-08-05T10:35:33;20.70;1.00
10276;DHT22;5183;51.190;6.820;2022-08-05T10:38:03;20.90;99.90
10276;DHT22;5183;51.190;6.820;2022-08-05T10:40:33;21.20;99.90
10276;DHT22;5183;51.190;6.820;2022-08-05T10:43:07;21.30;99.90
10276;DHT22;5183;51.190;6.820;2022-08-05T10:45:34;21.40;99.90
10276;DHT22;5183;51.190;6.820;2022-08-05T10:51:00;21.50;92.60
10276;DHT22;5183;51.190;6.820;2022-08-05T10:53:40;21.40;98.90
10276;DHT22;5183;51.190;6.820;2022-08-05T10:56:11;21.40;1.00
10276;DHT22;5183;51.190;6.820;2022-08-05T10:59:00;21.70;1.00
10276;DHT22;5183;51.190;6.820;2022-08-05T11:01:30;21.90;1.00
10276;DHT22;5183;51.190;6.820;2022-08-05T11:04:03;22.10;1.00
10276;DHT22;5183;51.190;6.820;2022-08-05T11:06:31;22.00;99.90
10276;DHT22;5183;51.190;6.820;2022-08-05T11:09:17;22.10;99.90
10276;DHT22;5183;51.190;6.820;2022-08-05T11:11:46;22.10;99.90
10276;DHT22;5183;51.190;6.820;2022-08-05T11:14:22;22.30;99.90
10276;DHT22;5183;51.190;6.820;2022-08-05T11:19:50;22.70;1.00
10276;DHT22;5183;51.190;6.820;2022-08-05T11:22:37;22.70;1.00
10276;DHT22;5183;51.190;6.820;2022-08-05T11:25:31;23.00;1.00
10276;DHT22;5183;51.190;6.820;2022-08-05T11:28:36;23.10;99.90
10276;DHT22;5183;51.190;6.820;2022-08-05T11:31:33;23.10;99.90
10276;DHT22;5183;51.190;6.820;2022-08-05T11:34:03;23.20;99.90
10276;DHT22;5183;51.190;6.820;2022-08-05T11:36:45;23.50;99.90
10276;DHT22;5183;51.190;6.820;2022-08-05T11:39:14;23.70;99.90
10276;DHT22;5183;51.190;6.820;2022-08-05T11:41:49;23.80;78.90
10276;DHT22;5183;51.190;6.820;2022-08-05T11:44:19;23.90;1.00
10276;DHT22;5183;51.190;6.820;2022-08-05T11:46:47;24.10;1.00
10276;DHT22;5183;51.190;6.820;2022-08-05T11:49:15;24.30;1.00
10276;DHT22;5183;51.190;6.820;2022-08-05T11:51:43;24.50;99.90
10276;DHT22;5183;51.190;6.820;2022-08-05T11:54:11;24.60;99.90
10276;DHT22;5183;51.190;6.820;2022-08-05T11:56:44;24.80;99.90
10276;DHT22;5183;51.190;6.820;2022-08-05T11:59:13;24.80;1.00
10276;DHT22;5183;51.190;6.820;2022-08-05T12:01:51;24.90;1.00
10276;DHT22;5183;51.190;6.820;2022-08-05T12:04:19;24.80;1.00
10276;DHT22;5183;51.190;6.820;2022-08-05T12:06:46;24.60;1.00
10276;DHT22;5183;51.190;6.820;2022-08-05T12:09:15;24.50;99.90
10276;DHT22;5183;51.190;6.820;2022-08-05T12:11:44;24.50;99.90
10276;DHT22;5183;51.190;6.820;2022-08-05T12:14:12;24.60;99.90
10276;DHT22;5183;51.190;6.820;2022-08-05T12:16:41;24.60;95.10
10276;DHT22;5183;51.190;6.820;2022-08-05T12:19:10;24.40;84.70
10276;DHT22;5183;51.190;6.820;2022-08-05T12:21:43;24.20;99.90
10276;DHT22;5183;51.190;6.820;2022-08-05T12:24:12;24.30;99.90
10276;DHT22;5183;51.190;6.820;2022-08-05T12:26:44;24.30;99.90
10276;DHT22;5183;51.190;6.820;2022-08-05T12:29:13;24.50;99.90
10276;DHT22;5183;51.190;6.820;2022-08-05T12:31:44;24.30;1.00
10276;DHT22;5183;51.190;6.820;2022-08-05T12:34:12;24.10;1.00
10276;DHT22;5183;51.190;6.820;2022-08-05T12:36:40;23.90;99.90
10276;DHT22;5183;51.190;6.820;2022-08-05T12:39:08;24.10;47.70
10276;DHT22;5183;51.190;6.820;2022-08-05T12:41:36;24.00;94.00
10276;DHT22;5183;51.190;6.820;2022-08-05T12:44:07;24.20;1.00
10276;DHT22;5183;51.190;6.820;2022-08-05T12:46:35;24.60;99.90
10276;DHT22;5183;51.190;6.820;2022-08-05T12:49:05;24.70;99.90
10276;DHT22;5183;51.190;6.820;2022-08-05T12:51:43;24.60;99.90
10276;DHT22;5183;51.190;6.820;2022-08-05T12:54:16;24.50;99.90
10276;DHT22;5183;51.190;6.820;2022-08-05T12:56:47;24.40;99.90
10276;DHT22;5183;51.190;6.820;2022-08-05T12:59:17;24.60;99.90
10276;DHT22;5183;51.190;6.820;2022-08-05T13:01:52;25.00;1.00
10276;DHT22;5183;51.190;6.820;2022-08-05T13:04:20;25.20;99.90
10276;DHT22;5183;51.190;6.820;2022-08-05T13:06:47;25.50;99.90
10276;DHT22;5183;51.190;6.820;2022-08-05T13:09:14;25.70;99.90
10276;DHT22;5183;51.190;6.820;2022-08-05T13:11:42;25.90;99.90
10276;DHT22;5183;51.190;6.820;2022-08-05T13:14:22;25.90;2.00
10276;DHT22;5183;51.190;6.820;2022-08-05T13:16:52;25.90;99.90
10276;DHT22;5183;51.190;6.820;2022-08-05T13:19:24;25.60;99.90
10276;DHT22;5183;51.190;6.820;2022-08-05T13:21:51;25.30;1.00
10276;DHT22;5183;51.190;6.820;2022-08-05T13:24:19;25.10;1.00
10276;DHT22;5183;51.190;6.820;2022-08-05T13:26:47;24.50;99.90
10276;DHT22;5183;51.190;6.820;2022-08-05T13:29:14;24.00;1.00
10276;DHT22;5183;51.190;6.820;2022-08-05T13:31:42;23.70;1.00
10276;DHT22;5183;51.190;6.820;2022-08-05T13:34:09;23.20;99.90
10276;DHT22;5183;51.190;6.820;2022-08-05T13:36:37;23.00;28.80
10276;DHT22;5183;51.190;6.820;2022-08-05T13:39:05;22.70;1.00
10276;DHT22;5183;51.190;6.820;2022-08-05T13:41:33;22.40;1.00
10276;DHT22;5183;51.190;6.820;2022-08-05T13:44:00;22.20;99.90
10276;DHT22;5183;51.190;6.820;2022-08-05T13:46:27;22.10;99.90
10276;DHT22;5183;51.190;6.820;2022-08-05T13:48:55;22.10;99.90
10276;DHT22;5183;51.190;6.820;2022-08-05T13:51:27;22.20;99.90
10276;DHT22;5183;51.190;6.820;2022-08-05T13:53:55;22.30;99.90
10276;DHT22;5183;51.190;6.820;2022-08-05T13:56:22;22.50;99.90
10276;DHT22;5183;51.190;6.820;2022-08-05T13:58:49;22.80;1.00
10276;DHT22;5183;51.190;6.820;2022-08-05T14:01:16;23.20;1.00
10276;DHT22;5183;51.190;6.820;2022-08-05T14:03:43;23.60;99.90
10276;DHT22;5183;51.190;6.820;2022-08-05T14:06:11;23.90;1.00
10276;DHT22;5183;51.190;6.820;2022-08-05T14:08:37;24.10;99.90
10276;DHT22;5183;51.190;6.820;2022-08-05T14:11:04;24.00;99.90
10276;DHT22;5183;51.190;6.820;2022-08-05T14:13:31;23.90;99.90
10276;DHT22;5183;51.190;6.820;2022-08-05T14:15:57;23.90;99.90
10276;DHT22;5183;51.190;6.820;2022-08-05T14:18:24;23.70;1.00
10276;DHT22;5183;51.190;6.820;2022-08-05T14:20:51;23.80;1.00
10276;DHT22;5183;51.190;6.820;2022-08-05T14:23:19;23.70;1.00
10276;DHT22;5183;51.190;6.820;2022-08-05T14:25:46;23.60;85.90
10276;DHT22;5183;51.190;6.820;2022-08-05T14:28:13;23.70;99.90
10276;DHT22;5183;51.190;6.820;2022-08-05T14:30:40;23.60;99.90
10276;DHT22;5183;51.190;6.820;2022-08-05T14:33:07;23.70;99.90
10276;DHT22;5183;51.190;6.820;2022-08-05T14:35:35;23.50;99.90
10276;DHT22;5183;51.190;6.820;2022-08-05T14:38:02;23.60;99.90
10276;DHT22;5183;51.190;6.820;2022-08-05T14:40:30;23.80;99.90
10276;DHT22;5183;51.190;6.820;2022-08-05T14:42:57;23.90;99.90
10276;DHT22;5183;51.190;6.820;2022-08-05T14:45:23;24.00;99.90
10276;DHT22;5183;51.190;6.820;2022-08-05T14:47:50;24.10;99.90
10276;DHT22;5183;51.190;6.820;2022-08-05T14:50:17;24.20;1.00
10276;DHT22;5183;51.190;6.820;2022-08-05T14:52:44;24.30;1.00
10276;DHT22;5183;51.190;6.820;2022-08-05T14:55:11;24.50;1.00
10276;DHT22;5183;51.190;6.820;2022-08-05T14:57:39;24.70;99.90
10276;DHT22;5183;51.190;6.820;2022-08-05T15:00:07;24.80;18.60
10276;DHT22;5183;51.190;6.820;2022-08-05T15:02:34;24.90;1.00
10276;DHT22;5183;51.190;6.820;2022-08-05T15:05:01;25.00;1.00
10276;DHT22;5183;51.190;6.820;2022-08-05T15:07:28;25.20;1.00
10276;DHT22;5183;51.190;6.820;2022-08-05T15:09:55;25.30;1.00
10276;DHT22;5183;51.190;6.820;2022-08-05T15:12:22;25.50;99.90
10276;DHT22;5183;51.190;6.820;2022-08-05T15:14:51;25.50;1.00
10276;DHT22;5183;51.190;6.820;2022-08-05T15:17:18;25.70;99.90
10276;DHT22;5183;51.190;6.820;2022-08-05T15:19:45;25.70;22.90
10276;DHT22;5183;51.190;6.820;2022-08-05T15:22:12;25.70;16.80
10276;DHT22;5183;51.190;6.820;2022-08-05T15:24:40;25.80;1.00
10276;DHT22;5183;51.190;6.820;2022-08-05T15:27:07;25.60;1.00
10276;DHT22;5183;51.190;6.820;2022-08-05T15:29:34;25.40;1.00
10276;DHT22;5183;51.190;6.820;2022-08-05T15:32:02;25.10;1.00
10276;DHT22;5183;51.190;6.820;2022-08-05T15:34:29;24.90;1.00
10276;DHT22;5183;51.190;6.820;2022-08-05T15:36:57;24.80;1.00
10276;DHT22;5183;51.190;6.820;2022-08-05T15:39:24;24.90;99.90
10276;DHT22;5183;51.190;6.820;2022-08-05T15:41:51;25.00;99.90
10276;DHT22;5183;51.190;6.820;2022-08-05T15:44:17;25.30;99.90
10276;DHT22;5183;51.190;6.820;2022-08-05T15:46:44;25.50;88.10
10276;DHT22;5183;51.190;6.820;2022-08-05T15:49:13;25.70;55.20
10276;DHT22;5183;51.190;6.820;2022-08-05T15:51:40;25.70;36.90
10276;DHT22;5183;51.190;6.820;2022-08-05T15:54:07;25.30;99.80
10276;DHT22;5183;51.190;6.820;2022-08-05T15:56:33;25.10;72.60
10276;DHT22;5183;51.190;6.820;2022-08-05T15:59:00;24.90;10.60
10276;DHT22;5183;51.190;6.820;2022-08-05T16:01:27;24.80;11.30
10276;DHT22;5183;51.190;6.820;2022-08-05T16:03:54;24.80;1.00
10276;DHT22;5183;51.190;6.820;2022-08-05T16:06:22;25.00;1.00